createdAt,value
2019-05-26T00:00:03.127Z,70.59
2019-05-26T00:03:08.957Z,72.85
2019-05-26T00:06:14.350Z,72.85
2019-05-26T00:09:19.286Z,74.96
2019-05-26T00:12:24.028Z,74.96
2019-05-26T00:15:28.832Z,74.63
2019-05-26T00:18:33.704Z,76.40
2019-05-26T00:21:38.774Z,76.72
2019-05-26T00:24:43.520Z,76.50
2019-05-26T00:27:48.744Z,76.19
2019-05-26T00:30:53.809Z,76.19
2019-05-26T00:33:58.493Z,76.63
2019-05-26T00:37:03.314Z,75.51
2019-05-26T00:40:08.554Z,75.51
2019-05-26T00:43:13.365Z,75.86
2019-05-26T00:46:18.506Z,76.10
2019-05-26T00:49:23.315Z,75.91
2019-05-26T00:52:28.136Z,74.00
2019-05-26T00:55:33.635Z,74.00
2019-05-26T00:58:38.731Z,75.64
2019-05-26T01:01:43.494Z,75.68
2019-05-26T01:04:48.269Z,77.78
2019-05-26T01:08:05.877Z,77.78
2019-05-26T01:11:01.468Z,78.05
2019-05-26T01:14:06.267Z,76.79
2019-05-26T01:17:11.369Z,76.01
2019-05-26T01:20:16.718Z,76.01
2019-05-26T01:23:21.479Z,76.80
2019-05-26T01:26:27.271Z,78.88
2019-05-26T01:29:33.651Z,78.88
2019-05-26T01:32:38.481Z,78.11
2019-05-26T01:35:43.653Z,76.79
2019-05-26T01:38:49.360Z,78.31
2019-05-26T01:41:54.432Z,77.64
2019-05-26T01:44:59.428Z,77.16
2019-05-26T01:48:04.970Z,77.19
2019-05-26T01:51:09.805Z,78.45
2019-05-26T01:54:16.203Z,78.06
2019-05-26T01:57:21.619Z,78.76
2019-05-26T02:00:26.631Z,79.77
2019-05-26T02:03:31.366Z,79.77
2019-05-26T02:06:36.195Z,80.58
2019-05-26T02:09:41.561Z,80.19
2019-05-26T02:12:47.009Z,80.37
2019-05-26T02:15:51.837Z,80.92
2019-05-26T02:18:56.881Z,80.22
2019-05-26T02:22:01.903Z,79.27
2019-05-26T02:25:07.316Z,79.71
2019-05-26T02:28:12.161Z,79.38
2019-05-26T02:31:17.169Z,80.08
2019-05-26T02:34:21.903Z,78.07
2019-05-26T02:37:26.893Z,79.42
2019-05-26T02:40:31.783Z,79.88
2019-05-26T02:43:36.841Z,79.07
2019-05-26T02:46:41.679Z,79.63
2019-05-26T02:49:46.401Z,79.41
2019-05-26T02:52:52.245Z,78.85
2019-05-26T02:55:57.119Z,80.16
2019-05-26T02:59:02.215Z,80.19
2019-05-26T03:02:07.352Z,80.90
2019-05-26T03:05:12.971Z,81.79
2019-05-26T03:08:17.722Z,82.01
2019-05-26T03:11:26.232Z,81.99
2019-05-26T03:14:33.432Z,82.13
2019-05-26T03:17:40.954Z,82.08
2019-05-26T03:20:45.993Z,81.82
2019-05-26T03:23:52.273Z,82.07
2019-05-26T03:26:58.603Z,82.86
2019-05-26T03:30:03.447Z,83.08
2019-05-26T03:33:08.545Z,83.20
2019-05-26T03:36:13.587Z,82.87
2019-05-26T03:39:18.322Z,83.75
2019-05-26T03:42:23.053Z,83.59
2019-05-26T03:46:11.282Z,83.34
2019-05-26T03:49:16.293Z,83.60
2019-05-26T03:52:21.372Z,83.32
2019-05-26T03:55:26.099Z,82.78
2019-05-26T03:58:31.579Z,82.63
2019-05-26T04:01:36.679Z,82.68
2019-05-26T04:04:41.653Z,82.82
2019-05-26T04:07:47.106Z,83.47
2019-05-26T04:10:52.347Z,82.47
2019-05-26T04:13:58.714Z,83.28
2019-05-26T04:17:03.859Z,83.14
2019-05-26T04:20:09.063Z,83.71
2019-05-26T04:23:14.083Z,84.37
2019-05-26T04:26:18.853Z,83.69
2019-05-26T04:29:24.649Z,83.84
2019-05-26T04:32:29.471Z,82.83
2019-05-26T04:35:34.204Z,84.54
2019-05-26T04:38:39.213Z,84.33
2019-05-26T04:41:44.392Z,83.99
2019-05-26T04:44:49.243Z,83.86
2019-05-26T04:47:54.302Z,83.15
2019-05-26T04:50:59.130Z,83.33
2019-05-26T04:54:04.040Z,83.58
2019-05-26T04:57:09.234Z,83.07
2019-05-26T05:00:14.543Z,83.44
2019-05-26T05:03:19.326Z,83.03
2019-05-26T05:06:24.433Z,82.24
2019-05-26T05:09:29.223Z,82.06
2019-05-26T05:12:34.226Z,82.20
2019-05-26T05:15:39.336Z,84.09
2019-05-26T05:18:44.095Z,83.35
2019-05-26T05:21:49.036Z,83.30
2019-05-26T05:24:53.857Z,83.58
2019-05-26T05:27:58.701Z,82.76
2019-05-26T05:31:03.883Z,81.99
2019-05-26T05:34:08.633Z,83.14
2019-05-26T05:37:13.617Z,82.33
2019-05-26T05:40:19.170Z,83.99
2019-05-26T05:43:24.372Z,83.99
2019-05-26T05:46:29.289Z,84.44
2019-05-26T05:49:34.122Z,84.28
2019-05-26T05:52:39.205Z,84.13
2019-05-26T05:55:44.066Z,83.62
2019-05-26T05:58:48.830Z,85.14
2019-05-26T06:01:55.220Z,84.86
2019-05-26T06:05:00.053Z,84.94
2019-05-26T06:08:05.030Z,83.40
2019-05-26T06:11:16.722Z,82.97
2019-05-26T06:14:16.870Z,82.00
2019-05-26T06:17:21.644Z,81.80
2019-05-26T06:20:26.511Z,81.86
2019-05-26T06:23:31.251Z,81.26
2019-05-26T06:26:36.433Z,81.17
2019-05-26T06:29:56.008Z,80.99
2019-05-26T06:32:48.079Z,80.37
2019-05-26T06:35:52.952Z,80.37
2019-05-26T06:38:57.834Z,80.52
2019-05-26T06:42:03.147Z,80.39
2019-05-26T06:45:08.577Z,80.39
2019-05-26T06:48:14.907Z,78.66
2019-05-26T06:51:20.779Z,76.59
2019-05-26T06:54:25.600Z,75.62
2019-05-26T06:57:30.533Z,75.01
2019-05-26T07:00:35.267Z,74.00
2019-05-26T07:03:40.066Z,71.96
2019-05-26T07:06:46.221Z,72.99
2019-05-26T07:09:52.147Z,72.99
2019-05-26T07:12:58.076Z,71.30
2019-05-26T07:16:02.936Z,71.30
2019-05-26T07:19:07.762Z,72.24
2019-05-26T07:22:13.867Z,70.98
2019-05-26T07:25:18.770Z,71.30
2019-05-26T07:28:23.709Z,68.04
2019-05-26T07:31:29.212Z,68.04
2019-05-26T07:34:34.339Z,69.40
2019-05-26T07:37:40.491Z,69.34
2019-05-26T07:40:45.258Z,69.98
2019-05-26T07:43:50.118Z,68.51
2019-05-26T07:46:54.989Z,67.45
2019-05-26T07:49:59.852Z,68.91
2019-05-26T07:53:04.745Z,67.99
2019-05-26T07:56:09.787Z,66.36
2019-05-26T07:59:14.953Z,65.59
2019-05-26T08:02:20.029Z,66.92
2019-05-26T08:05:24.823Z,64.64
2019-05-26T08:08:29.965Z,65.33
2019-05-26T08:11:34.839Z,65.24
2019-05-26T08:14:39.687Z,64.49
2019-05-26T08:17:44.488Z,61.05
2019-05-26T08:20:49.661Z,58.00
2019-05-26T08:23:54.478Z,60.40
2019-05-26T08:26:59.270Z,59.07
2019-05-26T08:30:05.284Z,60.20
2019-05-26T08:33:10.010Z,59.14
2019-05-26T08:36:14.840Z,57.97
2019-05-26T08:39:19.652Z,58.49
2019-05-26T08:42:31.930Z,58.87
2019-05-26T08:45:31.266Z,59.83
2019-05-26T08:48:36.117Z,58.14
2019-05-26T08:51:41.908Z,56.51
2019-05-26T08:54:46.781Z,54.94
2019-05-26T08:57:51.782Z,54.97
2019-05-26T09:00:56.551Z,54.78
2019-05-26T09:04:01.358Z,53.52
2019-05-26T09:07:06.517Z,53.77
2019-05-26T09:10:13.070Z,53.03
2019-05-26T09:13:18.232Z,51.97
2019-05-26T09:16:26.290Z,52.76
2019-05-26T09:19:31.363Z,54.40
2019-05-26T09:22:36.875Z,54.45
2019-05-26T09:25:42.277Z,53.22
2019-05-26T09:28:47.327Z,52.16
2019-05-26T09:31:52.419Z,51.94
2019-05-26T09:34:57.286Z,50.91
2019-05-26T09:38:02.333Z,52.37
2019-05-26T09:41:07.256Z,51.62
2019-05-26T09:44:12.104Z,50.76
2019-05-26T09:47:16.910Z,50.38
2019-05-26T09:50:22.858Z,50.88
2019-05-26T09:53:28.687Z,50.38
2019-05-26T09:56:34.793Z,50.84
2019-05-26T09:59:39.846Z,49.02
2019-05-26T10:02:44.759Z,48.61
2019-05-26T10:05:49.596Z,47.98
2019-05-26T10:08:54.338Z,48.31
2019-05-26T10:12:00.794Z,47.50
2019-05-26T10:15:06.577Z,47.47
2019-05-26T10:18:12.714Z,46.70
2019-05-26T10:21:17.918Z,47.02
2019-05-26T10:24:22.716Z,47.52
2019-05-26T10:27:27.573Z,47.10
2019-05-26T10:30:32.692Z,46.44
2019-05-26T10:33:37.853Z,43.78
2019-05-26T10:36:42.689Z,43.42
2019-05-26T10:39:47.797Z,44.28
2019-05-26T10:42:52.523Z,45.35
2019-05-26T10:45:58.321Z,44.95
2019-05-26T10:49:03.208Z,43.85
2019-05-26T10:52:08.538Z,44.11
2019-05-26T10:55:13.420Z,45.36
2019-05-26T10:58:18.604Z,45.74
2019-05-26T11:01:23.738Z,44.64
2019-05-26T11:04:29.133Z,45.24
2019-05-26T11:07:33.942Z,47.03
2019-05-26T11:10:38.772Z,47.86
2019-05-26T11:13:43.831Z,48.26
2019-05-26T11:16:48.692Z,48.11
2019-05-26T11:19:53.604Z,47.44
2019-05-26T11:22:58.373Z,47.18
2019-05-26T11:26:03.549Z,47.41
2019-05-26T11:29:08.385Z,48.25
2019-05-26T11:32:13.523Z,48.93
2019-05-26T11:35:19.165Z,46.39
2019-05-26T11:38:24.465Z,46.77
2019-05-26T11:41:29.886Z,46.28
2019-05-26T11:44:35.103Z,46.13
2019-05-26T11:47:39.833Z,44.95
2019-05-26T11:50:44.693Z,43.88
2019-05-26T11:53:49.773Z,43.29
2019-05-26T11:56:54.557Z,45.09
2019-05-26T12:00:01.044Z,44.77
2019-05-26T12:03:06.254Z,43.21
2019-05-26T12:06:11.257Z,43.29
2019-05-26T12:09:16.076Z,43.26
2019-05-26T12:12:20.866Z,43.42
2019-05-26T12:15:26.978Z,42.87
2019-05-26T12:18:31.786Z,42.12
2019-05-26T12:21:36.949Z,41.72
2019-05-26T12:24:42.176Z,41.94
2019-05-26T12:27:47.068Z,42.06
2019-05-26T12:30:51.794Z,42.59
2019-05-26T12:33:56.586Z,43.84
2019-05-26T12:37:01.655Z,44.13
2019-05-26T12:40:07.025Z,44.62
2019-05-26T12:43:12.241Z,45.62
2019-05-26T12:46:17.081Z,43.68
2019-05-26T12:49:21.873Z,42.37
2019-05-26T12:52:27.874Z,43.30
2019-05-26T12:55:33.673Z,42.90
2019-05-26T12:58:38.534Z,41.48
2019-05-26T13:01:43.739Z,40.66
2019-05-26T13:04:48.506Z,42.12
2019-05-26T13:07:53.397Z,42.92
2019-05-26T13:10:58.231Z,41.12
2019-05-26T13:14:03.253Z,39.44
2019-05-26T13:17:08.628Z,40.65
2019-05-26T13:20:14.870Z,41.36
2019-05-26T13:23:19.801Z,39.91
2019-05-26T13:26:24.938Z,38.14
2019-05-26T13:32:33.211Z,38.04
2019-05-26T13:35:37.988Z,39.72
2019-05-26T13:38:42.790Z,38.33
2019-05-26T13:41:47.861Z,37.24
2019-05-26T13:44:52.922Z,37.83
2019-05-26T13:47:57.770Z,37.83
2019-05-26T13:51:02.725Z,38.27
2019-05-26T13:54:08.104Z,37.58
2019-05-26T13:57:12.911Z,37.37
2019-05-26T14:00:18.511Z,38.08
2019-05-26T14:03:24.279Z,37.57
2019-05-26T14:06:29.225Z,38.17
2019-05-26T14:09:34.369Z,37.03
2019-05-26T14:12:39.285Z,36.94
2019-05-26T14:15:44.107Z,36.34
2019-05-26T14:18:49.516Z,36.83
2019-05-26T14:21:54.667Z,35.53
2019-05-26T14:24:59.895Z,36.22
2019-05-26T14:28:05.258Z,36.61
2019-05-26T14:31:10.050Z,35.57
2019-05-26T14:34:14.780Z,35.45
2019-05-26T14:37:19.541Z,34.91
2019-05-26T14:40:24.414Z,34.31
2019-05-26T14:43:29.624Z,34.08
2019-05-26T14:46:34.706Z,35.32
2019-05-26T14:49:39.975Z,34.57
2019-05-26T14:52:44.841Z,35.17
2019-05-26T14:55:49.710Z,35.39
2019-05-26T14:58:54.550Z,33.56
2019-05-26T15:01:59.485Z,34.89
2019-05-26T15:05:04.941Z,34.74
2019-05-26T15:08:09.697Z,34.96
2019-05-26T15:11:14.723Z,33.58
2019-05-26T15:14:19.538Z,32.89
2019-05-26T15:17:24.855Z,34.28
2019-05-26T15:20:29.759Z,32.36
2019-05-26T15:23:34.509Z,32.19
2019-05-26T15:26:42.400Z,31.92
2019-05-26T15:29:47.216Z,34.35
2019-05-26T15:32:52.060Z,34.50
2019-05-26T15:35:56.949Z,34.22
2019-05-26T15:39:01.808Z,34.63
2019-05-26T15:42:08.502Z,33.95
2019-05-26T15:45:16.186Z,34.91
2019-05-26T15:48:20.988Z,34.80
2019-05-26T15:51:26.136Z,34.39
2019-05-26T15:54:30.988Z,34.05
2019-05-26T15:57:36.133Z,33.97
2019-05-26T16:00:41.220Z,34.03
2019-05-26T16:03:47.262Z,33.65
2019-05-26T16:06:52.364Z,33.55
2019-05-26T16:09:57.328Z,33.29
2019-05-26T16:13:02.125Z,33.08
2019-05-26T16:16:06.915Z,33.95
2019-05-26T16:19:11.814Z,34.76
2019-05-26T16:22:17.100Z,34.03
2019-05-26T16:25:22.136Z,34.19
2019-05-26T16:28:27.224Z,35.46
2019-05-26T16:31:32.275Z,35.99
2019-05-26T16:34:37.263Z,35.23
2019-05-26T16:37:42.056Z,34.44
2019-05-26T16:40:46.957Z,34.10
2019-05-26T16:43:51.841Z,34.38
2019-05-26T16:46:57.161Z,35.53
2019-05-26T16:50:01.942Z,34.76
2019-05-26T16:53:06.670Z,34.77
2019-05-26T16:56:11.573Z,35.50
2019-05-26T16:59:16.618Z,35.09
2019-05-26T17:02:21.375Z,34.32
2019-05-26T17:05:26.249Z,33.71
2019-05-26T17:08:31.207Z,32.57
2019-05-26T17:11:37.290Z,33.33
2019-05-26T17:14:42.118Z,33.23
2019-05-26T17:17:47.130Z,34.29
2019-05-26T17:20:51.941Z,33.87
2019-05-26T17:23:56.910Z,34.59
2019-05-26T17:27:01.709Z,34.64
2019-05-26T17:30:07.011Z,33.94
2019-05-26T17:33:11.979Z,34.20
2019-05-26T17:36:16.778Z,34.24
2019-05-26T17:39:22.036Z,34.97
2019-05-26T17:42:27.211Z,34.52
2019-05-26T17:45:32.513Z,34.44
2019-05-26T17:48:37.364Z,34.92
2019-05-26T17:51:42.538Z,35.51
2019-05-26T17:54:47.315Z,35.07
2019-05-26T17:57:52.191Z,33.59
2019-05-26T18:00:57.063Z,33.86
2019-05-26T18:04:01.889Z,34.15
2019-05-26T18:07:07.205Z,34.11
2019-05-26T18:10:13.223Z,33.92
2019-05-26T18:13:17.992Z,33.80
2019-05-26T18:16:22.775Z,34.13
2019-05-26T18:19:29.766Z,34.41
2019-05-26T18:22:34.495Z,35.01
2019-05-26T18:25:40.061Z,35.65
2019-05-26T18:28:44.998Z,35.75
2019-05-26T18:31:49.858Z,35.96
2019-05-26T18:34:54.875Z,36.01
2019-05-26T18:38:00.549Z,36.10
2019-05-26T18:41:05.588Z,36.15
2019-05-26T18:44:10.422Z,36.45
2019-05-26T18:47:15.414Z,37.02
2019-05-26T18:50:20.292Z,37.00
2019-05-26T18:53:25.097Z,37.71
2019-05-26T18:56:30.557Z,38.19
2019-05-26T18:59:35.401Z,38.54
2019-05-26T19:02:40.265Z,38.74
2019-05-26T19:05:45.094Z,39.15
2019-05-26T19:08:50.247Z,39.73
2019-05-26T19:11:55.570Z,40.13
2019-05-26T19:15:01.362Z,41.24
2019-05-26T19:18:19.440Z,41.37
2019-05-26T19:21:14.199Z,41.70
2019-05-26T19:24:18.964Z,41.90
2019-05-26T19:27:23.848Z,42.26
2019-05-26T19:30:28.914Z,42.48
2019-05-26T19:33:33.685Z,42.54
2019-05-26T19:36:38.559Z,42.73
2019-05-26T19:39:43.365Z,42.83
2019-05-26T19:42:49.444Z,43.38
2019-05-26T19:45:54.704Z,43.73
2019-05-26T19:48:59.463Z,43.92
2019-05-26T19:52:04.414Z,44.23
2019-05-26T19:55:10.207Z,44.27
2019-05-26T19:58:15.118Z,45.21
2019-05-26T20:01:19.922Z,45.34
2019-05-26T20:04:25.071Z,45.98
2019-05-26T20:07:29.986Z,46.28
2019-05-26T20:10:35.483Z,46.21
2019-05-26T20:13:40.447Z,46.33
2019-05-26T20:16:45.305Z,46.23
2019-05-26T20:19:50.214Z,46.60
2019-05-26T20:22:55.047Z,46.56
2019-05-26T20:26:00.089Z,46.72
2019-05-26T20:29:05.029Z,48.06
2019-05-26T20:32:09.972Z,48.64
2019-05-26T20:35:15.282Z,49.00
2019-05-26T20:38:20.444Z,49.01
2019-05-26T20:41:25.327Z,50.06
2019-05-26T20:44:30.652Z,50.24
2019-05-26T20:47:35.811Z,50.10
2019-05-26T20:50:40.850Z,50.92
2019-05-26T20:53:46.535Z,50.95
2019-05-26T20:56:51.630Z,50.93
2019-05-26T20:59:56.480Z,51.25
2019-05-26T21:03:01.621Z,51.60
2019-05-26T21:06:06.533Z,51.52
2019-05-26T21:09:11.768Z,50.59
2019-05-26T21:12:16.547Z,51.57
2019-05-26T21:15:21.457Z,51.56
2019-05-26T21:18:28.670Z,51.94
2019-05-26T21:21:34.168Z,52.04
2019-05-26T21:24:38.956Z,52.42
2019-05-26T21:27:43.768Z,53.19
2019-05-26T21:30:49.044Z,52.64
2019-05-26T21:33:53.894Z,53.37
2019-05-26T21:36:58.967Z,53.33
2019-05-26T21:40:04.796Z,53.52
2019-05-26T21:43:09.923Z,54.11
2019-05-26T21:46:15.033Z,53.32
2019-05-26T21:49:21.105Z,53.87
2019-05-26T21:52:25.907Z,54.29
2019-05-26T21:55:30.766Z,54.32
2019-05-26T21:58:35.528Z,55.12
2019-05-26T22:01:41.048Z,55.72
2019-05-26T22:04:46.150Z,56.41
2019-05-26T22:07:51.206Z,56.78
2019-05-26T22:10:55.948Z,57.05
2019-05-26T22:14:01.070Z,57.54
2019-05-26T22:17:06.144Z,58.19
2019-05-26T22:20:11.472Z,58.46
2019-05-26T22:23:16.593Z,58.10
2019-05-26T22:26:21.615Z,57.83
2019-05-26T22:29:26.452Z,59.13
2019-05-26T22:32:31.169Z,59.91
2019-05-26T22:35:36.566Z,60.37
2019-05-26T22:38:41.345Z,60.77
2019-05-26T22:41:46.383Z,60.83
2019-05-26T22:44:51.201Z,61.24
2019-05-26T22:47:55.926Z,60.60
2019-05-26T22:51:01.168Z,60.06
2019-05-26T22:54:05.995Z,60.38
2019-05-26T22:57:10.879Z,59.41
2019-05-26T23:00:16.100Z,59.92
2019-05-26T23:03:21.206Z,60.74
2019-05-26T23:06:25.945Z,61.26
2019-05-26T23:09:30.708Z,61.33
2019-05-26T23:12:35.502Z,61.63
2019-05-26T23:15:40.486Z,61.50
2019-05-26T23:18:46.288Z,60.26
2019-05-26T23:21:51.401Z,61.12
2019-05-26T23:24:56.153Z,60.00
2019-05-26T23:28:00.890Z,61.78
2019-05-26T23:31:06.129Z,61.80
2019-05-26T23:34:11.200Z,60.52
2019-05-26T23:37:16.271Z,60.72
2019-05-26T23:40:20.992Z,60.57
2019-05-26T23:43:26.199Z,60.53
2019-05-26T23:46:30.965Z,61.59
2019-05-26T23:49:35.996Z,61.44
2019-05-26T23:52:40.753Z,62.16
2019-05-26T23:55:45.753Z,62.04
2019-05-26T23:58:50.511Z,61.21
